sensor_id;sensor_type;location;lat;lon;timestamp;temperature;humidity
15103;DHT22;7652;53.584;9.998;2022-12-07T00:00:09;4.90;99.90
15103;DHT22;7652;53.584;9.998;2022-12-07T00:03:12;4.90;99.90
15103;DHT22;7652;53.584;9.998;2022-12-07T00:06:18;5.00;99.90
15103;DHT22;7652;53.584;9.998;2022-12-07T00:09:21;5.00;99.90
15103;DHT22;7652;53.584;9.998;2022-12-07T00:12:24;5.00;99.90
15103;DHT22;7652;53.584;9.998;2022-12-07T00:15:27;5.00;99.90
15103;DHT22;7652;53.584;9.998;2022-12-07T00:18:30;5.00;99.90
15103;DHT22;7652;53.584;9.998;2022-12-07T00:21:35;5.10;99.90
15103;DHT22;7652;53.584;9.998;2022-12-07T00:24:38;5.10;99.90
15103;DHT22;7652;53.584;9.998;2022-12-07T00:27:41;5.10;99.90
15103;DHT22;7652;53.584;9.998;2022-12-07T00:30:44;5.10;99.90
15103;DHT22;7652;53.584;9.998;2022-12-07T00:33:49;5.10;99.90
15103;DHT22;7652;53.584;9.998;2022-12-07T00:36:53;5.10;99.90
15103;DHT22;7652;53.584;9.998;2022-12-07T00:39:56;5.10;99.90
15103;DHT22;7652;53.584;9.998;2022-12-07T00:42:59;5.10;99.90
15103;DHT22;7652;53.584;9.998;2022-12-07T00:46:03;5.10;99.90
15103;DHT22;7652;53.584;9.998;2022-12-07T00:49:06;5.20;99.90
15103;DHT22;7652;53.584;9.998;2022-12-07T00:52:10;5.20;99.90
15103;DHT22;7652;53.584;9.998;2022-12-07T00:55:13;5.20;99.90
15103;DHT22;7652;53.584;9.998;2022-12-07T00:58:16;5.20;99.90
15103;DHT22;7652;53.584;9.998;2022-12-07T01:01:19;5.20;99.90
15103;DHT22;7652;53.584;9.998;2022-12-07T01:04:22;5.20;99.90
15103;DHT22;7652;53.584;9.998;2022-12-07T01:07:27;5.30;99.90
15103;DHT22;7652;53.584;9.998;2022-12-07T01:10:30;5.30;99.90
15103;DHT22;7652;53.584;9.998;2022-12-07T01:13:34;5.30;99.90
15103;DHT22;7652;53.584;9.998;2022-12-07T01:16:38;5.30;99.90
15103;DHT22;7652;53.584;9.998;2022-12-07T01:19:41;5.10;99.90
15103;DHT22;7652;53.584;9.998;2022-12-07T01:22:46;5.10;99.90
15103;DHT22;7652;53.584;9.998;2022-12-07T01:25:54;5.00;99.90
15103;DHT22;7652;53.584;9.998;2022-12-07T01:28:57;5.00;99.90
15103;DHT22;7652;53.584;9.998;2022-12-07T01:32:02;5.00;99.90
15103;DHT22;7652;53.584;9.998;2022-12-07T01:35:05;4.90;99.90
15103;DHT22;7652;53.584;9.998;2022-12-07T01:38:10;5.00;99.90
15103;DHT22;7652;53.584;9.998;2022-12-07T01:41:13;4.90;99.90
15103;DHT22;7652;53.584;9.998;2022-12-07T01:44:20;4.90;99.90
15103;DHT22;7652;53.584;9.998;2022-12-07T01:47:23;4.90;99.90
15103;DHT22;7652;53.584;9.998;2022-12-07T01:50:28;4.90;99.90
15103;DHT22;7652;53.584;9.998;2022-12-07T01:53:36;4.90;99.90
15103;DHT22;7652;53.584;9.998;2022-12-07T01:56:42;4.90;99.90
15103;DHT22;7652;53.584;9.998;2022-12-07T01:59:49;4.80;99.90
15103;DHT22;7652;53.584;9.998;2022-12-07T02:02:55;4.80;99.90
15103;DHT22;7652;53.584;9.998;2022-12-07T02:06:01;4.80;99.90
15103;DHT22;7652;53.584;9.998;2022-12-07T02:09:05;4.80;99.90
15103;DHT22;7652;53.584;9.998;2022-12-07T02:12:08;4.70;99.90
15103;DHT22;7652;53.584;9.998;2022-12-07T02:15:12;4.70;99.90
15103;DHT22;7652;53.584;9.998;2022-12-07T02:18:19;4.60;99.90
15103;DHT22;7652;53.584;9.998;2022-12-07T02:21:32;4.70;99.90
15103;DHT22;7652;53.584;9.998;2022-12-07T02:24:48;4.60;99.90
15103;DHT22;7652;53.584;9.998;2022-12-07T02:28:02;4.60;99.90
15103;DHT22;7652;53.584;9.998;2022-12-07T02:31:12;4.60;99.90
15103;DHT22;7652;53.584;9.998;2022-12-07T02:34:22;4.50;99.90
15103;DHT22;7652;53.584;9.998;2022-12-07T02:37:34;4.50;99.90
15103;DHT22;7652;53.584;9.998;2022-12-07T02:40:43;4.50;99.90
15103;DHT22;7652;53.584;9.998;2022-12-07T02:43:49;4.50;99.90
15103;DHT22;7652;53.584;9.998;2022-12-07T02:47:00;4.40;99.90
15103;DHT22;7652;53.584;9.998;2022-12-07T02:50:05;4.40;99.90
15103;DHT22;7652;53.584;9.998;2022-12-07T02:53:30;4.40;99.90
15103;DHT22;7652;53.584;9.998;2022-12-07T02:56:39;4.40;99.90
15103;DHT22;7652;53.584;9.998;2022-12-07T02:59:54;4.40;99.90
15103;DHT22;7652;53.584;9.998;2022-12-07T03:03:06;4.40;99.90
15103;DHT22;7652;53.584;9.998;2022-12-07T03:06:16;4.30;99.90
15103;DHT22;7652;53.584;9.998;2022-12-07T03:09:28;4.30;99.90
15103;DHT22;7652;53.584;9.998;2022-12-07T03:12:39;4.20;99.90
15103;DHT22;7652;53.584;9.998;2022-12-07T03:15:49;4.30;99.90
15103;DHT22;7652;53.584;9.998;2022-12-07T03:18:59;4.20;99.90
15103;DHT22;7652;53.584;9.998;2022-12-07T03:22:06;4.20;99.90
15103;DHT22;7652;53.584;9.998;2022-12-07T03:25:12;4.10;99.90
15103;DHT22;7652;53.584;9.998;2022-12-07T03:28:19;4.10;99.90
15103;DHT22;7652;53.584;9.998;2022-12-07T03:31:26;4.10;99.90
15103;DHT22;7652;53.584;9.998;2022-12-07T03:34:38;4.10;99.90
15103;DHT22;7652;53.584;9.998;2022-12-07T03:37:45;4.00;99.90
15103;DHT22;7652;53.584;9.998;2022-12-07T03:40:54;4.00;99.90
15103;DHT22;7652;53.584;9.998;2022-12-07T03:44:01;3.90;99.90
15103;DHT22;7652;53.584;9.998;2022-12-07T03:47:08;3.90;99.90
15103;DHT22;7652;53.584;9.998;2022-12-07T03:50:21;3.90;99.90
15103;DHT22;7652;53.584;9.998;2022-12-07T03:53:34;3.90;99.90
15103;DHT22;7652;53.584;9.998;2022-12-07T03:56:39;3.90;99.90
15103;DHT22;7652;53.584;9.998;2022-12-07T03:59:42;3.80;99.90
15103;DHT22;7652;53.584;9.998;2022-12-07T04:02:46;3.80;99.90
15103;DHT22;7652;53.584;9.998;2022-12-07T04:05:50;3.80;99.90
15103;DHT22;7652;53.584;9.998;2022-12-07T04:08:53;3.70;99.90
15103;DHT22;7652;53.584;9.998;2022-12-07T04:11:56;3.70;99.90
15103;DHT22;7652;53.584;9.998;2022-12-07T04:14:59;3.70;99.90
15103;DHT22;7652;53.584;9.998;2022-12-07T04:18:02;3.60;99.90
15103;DHT22;7652;53.584;9.998;2022-12-07T04:21:07;3.60;99.90
15103;DHT22;7652;53.584;9.998;2022-12-07T04:24:11;3.60;99.90
15103;DHT22;7652;53.584;9.998;2022-12-07T04:27:14;3.50;99.90
15103;DHT22;7652;53.584;9.998;2022-12-07T04:30:19;3.60;99.90
15103;DHT22;7652;53.584;9.998;2022-12-07T04:33:22;3.50;99.90
15103;DHT22;7652;53.584;9.998;2022-12-07T04:36:26;3.60;99.90
15103;DHT22;7652;53.584;9.998;2022-12-07T04:39:31;3.50;99.90
15103;DHT22;7652;53.584;9.998;2022-12-07T04:42:35;3.50;99.90
15103;DHT22;7652;53.584;9.998;2022-12-07T04:45:38;3.50;99.90
15103;DHT22;7652;53.584;9.998;2022-12-07T04:48:41;3.50;99.90
15103;DHT22;7652;53.584;9.998;2022-12-07T04:51:46;3.40;99.90
15103;DHT22;7652;53.584;9.998;2022-12-07T04:54:49;3.40;99.90
15103;DHT22;7652;53.584;9.998;2022-12-07T04:57:52;3.40;99.90
15103;DHT22;7652;53.584;9.998;2022-12-07T05:00:55;3.40;99.90
15103;DHT22;7652;53.584;9.998;2022-12-07T05:03:58;3.30;99.90
15103;DHT22;7652;53.584;9.998;2022-12-07T05:07:02;3.30;99.90
15103;DHT22;7652;53.584;9.998;2022-12-07T05:10:07;3.30;99.90
15103;DHT22;7652;53.584;9.998;2022-12-07T05:13:10;3.20;99.90
15103;DHT22;7652;53.584;9.998;2022-12-07T05:16:13;3.30;99.90
15103;DHT22;7652;53.584;9.998;2022-12-07T05:19:17;3.30;99.90
15103;DHT22;7652;53.584;9.998;2022-12-07T05:22:21;3.40;99.90
15103;DHT22;7652;53.584;9.998;2022-12-07T05:25:24;3.30;99.90
15103;DHT22;7652;53.584;9.998;2022-12-07T05:28:27;3.40;99.90
15103;DHT22;7652;53.584;9.998;2022-12-07T05:31:31;3.30;99.90
15103;DHT22;7652;53.584;9.998;2022-12-07T05:34:36;3.30;99.90
15103;DHT22;7652;53.584;9.998;2022-12-07T05:37:40;3.30;99.90
15103;DHT22;7652;53.584;9.998;2022-12-07T05:40:43;3.30;99.90
15103;DHT22;7652;53.584;9.998;2022-12-07T05:43:46;3.30;99.90
15103;DHT22;7652;53.584;9.998;2022-12-07T05:46:49;3.30;99.90
15103;DHT22;7652;53.584;9.998;2022-12-07T05:49:52;3.40;99.90
15103;DHT22;7652;53.584;9.998;2022-12-07T05:52:56;3.40;99.90
15103;DHT22;7652;53.584;9.998;2022-12-07T05:55:59;3.50;99.90
15103;DHT22;7652;53.584;9.998;2022-12-07T05:59:02;3.50;99.90
15103;DHT22;7652;53.584;9.998;2022-12-07T06:02:22;3.40;99.90
15103;DHT22;7652;53.584;9.998;2022-12-07T06:05:26;3.40;99.90
15103;DHT22;7652;53.584;9.998;2022-12-07T06:08:30;3.40;99.90
15103;DHT22;7652;53.584;9.998;2022-12-07T06:11:33;3.30;99.90
15103;DHT22;7652;53.584;9.998;2022-12-07T06:14:54;3.30;99.90
15103;DHT22;7652;53.584;9.998;2022-12-07T06:17:57;3.30;99.90
15103;DHT22;7652;53.584;9.998;2022-12-07T06:21:00;3.40;99.90
15103;DHT22;7652;53.584;9.998;2022-12-07T06:24:05;3.30;99.90
15103;DHT22;7652;53.584;9.998;2022-12-07T06:27:08;3.40;99.90
15103;DHT22;7652;53.584;9.998;2022-12-07T06:30:11;3.40;99.90
15103;DHT22;7652;53.584;9.998;2022-12-07T06:33:15;3.50;99.90
15103;DHT22;7652;53.584;9.998;2022-12-07T06:36:18;3.50;99.90
15103;DHT22;7652;53.584;9.998;2022-12-07T06:39:29;3.50;99.90
15103;DHT22;7652;53.584;9.998;2022-12-07T06:42:32;3.60;99.90
15103;DHT22;7652;53.584;9.998;2022-12-07T06:45:35;3.70;99.90
15103;DHT22;7652;53.584;9.998;2022-12-07T06:48:38;3.70;99.90
15103;DHT22;7652;53.584;9.998;2022-12-07T06:51:42;3.70;99.90
15103;DHT22;7652;53.584;9.998;2022-12-07T06:54:46;3.70;99.90
15103;DHT22;7652;53.584;9.998;2022-12-07T06:57:49;3.70;99.90
15103;DHT22;7652;53.584;9.998;2022-12-07T07:00:52;3.80;99.90
15103;DHT22;7652;53.584;9.998;2022-12-07T07:03:55;3.80;99.90
15103;DHT22;7652;53.584;9.998;2022-12-07T07:06:58;3.80;99.90
15103;DHT22;7652;53.584;9.998;2022-12-07T07:10:04;3.90;99.90
15103;DHT22;7652;53.584;9.998;2022-12-07T07:13:07;3.80;99.90
15103;DHT22;7652;53.584;9.998;2022-12-07T07:16:11;3.90;99.90
15103;DHT22;7652;53.584;9.998;2022-12-07T07:19:14;3.90;99.90
15103;DHT22;7652;53.584;9.998;2022-12-07T07:22:17;3.80;99.90
15103;DHT22;7652;53.584;9.998;2022-12-07T07:25:21;3.80;99.90
15103;DHT22;7652;53.584;9.998;2022-12-07T07:28:24;3.80;99.90
15103;DHT22;7652;53.584;9.998;2022-12-07T07:31:28;3.80;99.90
15103;DHT22;7652;53.584;9.998;2022-12-07T07:34:31;3.80;99.90
15103;DHT22;7652;53.584;9.998;2022-12-07T07:37:34;3.80;99.90
15103;DHT22;7652;53.584;9.998;2022-12-07T07:40:38;3.80;99.90
15103;DHT22;7652;53.584;9.998;2022-12-07T07:43:41;3.80;99.90
15103;DHT22;7652;53.584;9.998;2022-12-07T07:46:44;3.80;99.90
15103;DHT22;7652;53.584;9.998;2022-12-07T07:49:48;3.90;99.90
15103;DHT22;7652;53.584;9.998;2022-12-07T07:52:51;3.90;99.90
15103;DHT22;7652;53.584;9.998;2022-12-07T07:55:55;3.90;99.90
15103;DHT22;7652;53.584;9.998;2022-12-07T07:58:58;3.90;99.90
15103;DHT22;7652;53.584;9.998;2022-12-07T08:02:01;3.90;99.90
15103;DHT22;7652;53.584;9.998;2022-12-07T08:05:05;4.00;99.90
15103;DHT22;7652;53.584;9.998;2022-12-07T08:08:08;4.00;99.90
15103;DHT22;7652;53.584;9.998;2022-12-07T08:11:13;4.10;99.90
15103;DHT22;7652;53.584;9.998;2022-12-07T08:14:16;4.20;99.90
15103;DHT22;7652;53.584;9.998;2022-12-07T08:17:19;4.30;99.90
15103;DHT22;7652;53.584;9.998;2022-12-07T08:20:22;4.30;99.90
15103;DHT22;7652;53.584;9.998;2022-12-07T08:23:25;4.40;99.90
15103;DHT22;7652;53.584;9.998;2022-12-07T08:26:41;4.40;99.90
15103;DHT22;7652;53.584;9.998;2022-12-07T08:29:44;4.50;99.90
15103;DHT22;7652;53.584;9.998;2022-12-07T08:32:48;4.40;99.90
15103;DHT22;7652;53.584;9.998;2022-12-07T08:35:51;4.50;99.90
15103;DHT22;7652;53.584;9.998;2022-12-07T08:38:54;4.50;99.90
15103;DHT22;7652;53.584;9.998;2022-12-07T08:42:19;4.60;99.90
15103;DHT22;7652;53.584;9.998;2022-12-07T08:45:23;4.60;99.90
15103;DHT22;7652;53.584;9.998;2022-12-07T08:48:28;4.70;99.90
15103;DHT22;7652;53.584;9.998;2022-12-07T08:51:32;4.70;99.90
15103;DHT22;7652;53.584;9.998;2022-12-07T08:54:36;4.80;99.90
15103;DHT22;7652;53.584;9.998;2022-12-07T08:57:41;4.90;99.90
15103;DHT22;7652;53.584;9.998;2022-12-07T09:00:44;4.90;99.90
15103;DHT22;7652;53.584;9.998;2022-12-07T09:03:47;4.90;99.90
15103;DHT22;7652;53.584;9.998;2022-12-07T09:06:50;5.00;99.90
15103;DHT22;7652;53.584;9.998;2022-12-07T09:09:53;5.10;99.90
15103;DHT22;7652;53.584;9.998;2022-12-07T09:12:58;5.20;99.90
15103;DHT22;7652;53.584;9.998;2022-12-07T09:16:02;5.20;99.90
15103;DHT22;7652;53.584;9.998;2022-12-07T09:19:05;5.30;99.90
15103;DHT22;7652;53.584;9.998;2022-12-07T09:22:09;5.40;99.90
15103;DHT22;7652;53.584;9.998;2022-12-07T09:25:12;5.40;99.90
15103;DHT22;7652;53.584;9.998;2022-12-07T09:28:16;5.50;99.90
15103;DHT22;7652;53.584;9.998;2022-12-07T09:31:19;5.60;99.90
15103;DHT22;7652;53.584;9.998;2022-12-07T09:34:26;5.60;99.90
15103;DHT22;7652;53.584;9.998;2022-12-07T09:37:29;5.70;99.90
15103;DHT22;7652;53.584;9.998;2022-12-07T09:40:33;5.70;99.90
15103;DHT22;7652;53.584;9.998;2022-12-07T09:43:39;5.80;99.90
15103;DHT22;7652;53.584;9.998;2022-12-07T09:46:43;5.80;99.90
15103;DHT22;7652;53.584;9.998;2022-12-07T09:49:47;5.80;99.90
15103;DHT22;7652;53.584;9.998;2022-12-07T09:52:51;5.80;99.90
15103;DHT22;7652;53.584;9.998;2022-12-07T09:55:55;5.80;99.90
15103;DHT22;7652;53.584;9.998;2022-12-07T09:59:00;5.80;99.90
15103;DHT22;7652;53.584;9.998;2022-12-07T10:02:23;5.80;99.90
15103;DHT22;7652;53.584;9.998;2022-12-07T10:05:28;5.80;99.90
15103;DHT22;7652;53.584;9.998;2022-12-07T10:08:33;5.80;99.90
15103;DHT22;7652;53.584;9.998;2022-12-07T10:11:58;5.80;99.90
15103;DHT22;7652;53.584;9.998;2022-12-07T10:15:05;5.80;99.90
15103;DHT22;7652;53.584;9.998;2022-12-07T10:18:34;5.80;99.90
15103;DHT22;7652;53.584;9.998;2022-12-07T10:21:38;5.80;99.90
15103;DHT22;7652;53.584;9.998;2022-12-07T10:24:42;5.90;99.90
15103;DHT22;7652;53.584;9.998;2022-12-07T10:27:57;5.90;99.90
15103;DHT22;7652;53.584;9.998;2022-12-07T10:31:15;5.90;99.90
15103;DHT22;7652;53.584;9.998;2022-12-07T10:34:22;5.90;99.90
15103;DHT22;7652;53.584;9.998;2022-12-07T10:37:26;5.90;99.90
15103;DHT22;7652;53.584;9.998;2022-12-07T10:40:32;5.90;99.90
15103;DHT22;7652;53.584;9.998;2022-12-07T10:43:35;5.90;99.90
15103;DHT22;7652;53.584;9.998;2022-12-07T10:46:56;5.90;99.90
15103;DHT22;7652;53.584;9.998;2022-12-07T10:50:22;6.00;99.90
15103;DHT22;7652;53.584;9.998;2022-12-07T10:53:48;6.10;99.90
15103;DHT22;7652;53.584;9.998;2022-12-07T10:57:04;6.20;99.90
15103;DHT22;7652;53.584;9.998;2022-12-07T11:00:15;6.20;99.90
15103;DHT22;7652;53.584;9.998;2022-12-07T11:03:44;6.40;99.90
15103;DHT22;7652;53.584;9.998;2022-12-07T11:06:54;6.50;99.90
15103;DHT22;7652;53.584;9.998;2022-12-07T11:10:05;6.60;99.90
15103;DHT22;7652;53.584;9.998;2022-12-07T11:13:27;6.50;99.90
15103;DHT22;7652;53.584;9.998;2022-12-07T11:16:48;6.60;99.90
15103;DHT22;7652;53.584;9.998;2022-12-07T11:20:03;6.60;99.90
15103;DHT22;7652;53.584;9.998;2022-12-07T11:23:16;6.50;99.90
15103;DHT22;7652;53.584;9.998;2022-12-07T11:26:31;6.50;99.90
15103;DHT22;7652;53.584;9.998;2022-12-07T11:29:54;6.50;99.90
15103;DHT22;7652;53.584;9.998;2022-12-07T11:33:12;6.50;99.90
15103;DHT22;7652;53.584;9.998;2022-12-07T11:36:31;6.40;99.90
15103;DHT22;7652;53.584;9.998;2022-12-07T11:39:40;6.30;99.90
15103;DHT22;7652;53.584;9.998;2022-12-07T11:42:49;6.30;99.90
15103;DHT22;7652;53.584;9.998;2022-12-07T11:45:59;6.20;99.90
15103;DHT22;7652;53.584;9.998;2022-12-07T11:49:08;6.30;99.90
15103;DHT22;7652;53.584;9.998;2022-12-07T11:52:22;6.40;99.90
15103;DHT22;7652;53.584;9.998;2022-12-07T11:55:32;6.40;99.90
15103;DHT22;7652;53.584;9.998;2022-12-07T11:58:49;6.30;99.90
15103;DHT22;7652;53.584;9.998;2022-12-07T12:01:57;6.40;99.90
15103;DHT22;7652;53.584;9.998;2022-12-07T12:05:07;6.50;99.90
15103;DHT22;7652;53.584;9.998;2022-12-07T12:08:21;6.60;99.90
15103;DHT22;7652;53.584;9.998;2022-12-07T12:12:05;6.70;99.90
15103;DHT22;7652;53.584;9.998;2022-12-07T12:15:57;6.90;99.90
15103;DHT22;7652;53.584;9.998;2022-12-07T12:19:17;7.00;99.90
15103;DHT22;7652;53.584;9.998;2022-12-07T12:22:32;7.10;99.90
15103;DHT22;7652;53.584;9.998;2022-12-07T12:25:40;7.10;99.90
15103;DHT22;7652;53.584;9.998;2022-12-07T12:28:52;7.20;99.90
15103;DHT22;7652;53.584;9.998;2022-12-07T12:32:12;7.20;99.90
15103;DHT22;7652;53.584;9.998;2022-12-07T12:35:29;7.20;99.90
15103;DHT22;7652;53.584;9.998;2022-12-07T12:38:33;7.10;99.90
15103;DHT22;7652;53.584;9.998;2022-12-07T12:41:57;7.30;99.90
15103;DHT22;7652;53.584;9.998;2022-12-07T12:45:21;7.70;99.90
15103;DHT22;7652;53.584;9.998;2022-12-07T12:48:29;8.40;99.90
15103;DHT22;7652;53.584;9.998;2022-12-07T12:51:37;8.90;99.90
15103;DHT22;7652;53.584;9.998;2022-12-07T12:54:58;8.90;99.90
15103;DHT22;7652;53.584;9.998;2022-12-07T12:58:33;8.80;99.90
15103;DHT22;7652;53.584;9.998;2022-12-07T13:01:42;8.60;99.90
15103;DHT22;7652;53.584;9.998;2022-12-07T13:04:54;8.60;99.90
15103;DHT22;7652;53.584;9.998;2022-12-07T13:08:01;8.50;99.90
15103;DHT22;7652;53.584;9.998;2022-12-07T13:11:17;8.30;99.90
15103;DHT22;7652;53.584;9.998;2022-12-07T13:14:43;8.30;99.90
15103;DHT22;7652;53.584;9.998;2022-12-07T13:18:02;8.20;99.90
15103;DHT22;7652;53.584;9.998;2022-12-07T13:24:38;8.00;99.90
15103;DHT22;7652;53.584;9.998;2022-12-07T13:27:44;7.80;99.90
15103;DHT22;7652;53.584;9.998;2022-12-07T13:31:00;7.60;99.90
15103;DHT22;7652;53.584;9.998;2022-12-07T13:34:27;7.30;99.90
15103;DHT22;7652;53.584;9.998;2022-12-07T13:37:32;7.20;99.90
15103;DHT22;7652;53.584;9.998;2022-12-07T13:40:39;7.20;99.90
15103;DHT22;7652;53.584;9.998;2022-12-07T13:43:44;7.00;99.90
15103;DHT22;7652;53.584;9.998;2022-12-07T13:47:00;7.00;99.90
15103;DHT22;7652;53.584;9.998;2022-12-07T13:50:23;7.00;99.90
15103;DHT22;7652;53.584;9.998;2022-12-07T13:53:27;6.90;99.90
15103;DHT22;7652;53.584;9.998;2022-12-07T13:56:33;6.90;99.90
15103;DHT22;7652;53.584;9.998;2022-12-07T13:59:36;6.90;99.90
15103;DHT22;7652;53.584;9.998;2022-12-07T14:02:55;6.80;99.90
15103;DHT22;7652;53.584;9.998;2022-12-07T14:06:17;6.80;99.90
15103;DHT22;7652;53.584;9.998;2022-12-07T14:09:22;6.70;99.90
15103;DHT22;7652;53.584;9.998;2022-12-07T14:12:28;6.40;99.90
15103;DHT22;7652;53.584;9.998;2022-12-07T14:15:32;6.50;99.90
15103;DHT22;7652;53.584;9.998;2022-12-07T14:18:38;6.40;99.90
15103;DHT22;7652;53.584;9.998;2022-12-07T14:21:42;6.20;99.90
15103;DHT22;7652;53.584;9.998;2022-12-07T14:24:45;6.30;99.90
15103;DHT22;7652;53.584;9.998;2022-12-07T14:27:51;6.20;99.90
15103;DHT22;7652;53.584;9.998;2022-12-07T14:30:55;6.20;99.90
15103;DHT22;7652;53.584;9.998;2022-12-07T14:34:00;6.00;99.90
15103;DHT22;7652;53.584;9.998;2022-12-07T14:37:06;5.90;99.90
15103;DHT22;7652;53.584;9.998;2022-12-07T14:40:13;5.80;99.90
15103;DHT22;7652;53.584;9.998;2022-12-07T14:43:17;5.70;99.90
15103;DHT22;7652;53.584;9.998;2022-12-07T14:46:20;5.70;99.90
15103;DHT22;7652;53.584;9.998;2022-12-07T14:49:25;5.60;99.90
15103;DHT22;7652;53.584;9.998;2022-12-07T14:52:30;5.50;99.90
15103;DHT22;7652;53.584;9.998;2022-12-07T14:55:53;5.40;99.90
15103;DHT22;7652;53.584;9.998;2022-12-07T14:58:56;5.30;99.90
15103;DHT22;7652;53.584;9.998;2022-12-07T15:02:00;5.20;99.90
15103;DHT22;7652;53.584;9.998;2022-12-07T15:05:04;5.00;99.90
15103;DHT22;7652;53.584;9.998;2022-12-07T15:08:16;4.90;99.90
15103;DHT22;7652;53.584;9.998;2022-12-07T15:11:19;4.80;99.90
15103;DHT22;7652;53.584;9.998;2022-12-07T15:14:22;4.80;99.90
15103;DHT22;7652;53.584;9.998;2022-12-07T15:17:25;4.90;99.90
15103;DHT22;7652;53.584;9.998;2022-12-07T15:20:34;4.90;99.90
15103;DHT22;7652;53.584;9.998;2022-12-07T15:23:37;4.90;99.90
15103;DHT22;7652;53.584;9.998;2022-12-07T15:26:40;4.90;99.90
15103;DHT22;7652;53.584;9.998;2022-12-07T15:29:43;4.90;99.90
15103;DHT22;7652;53.584;9.998;2022-12-07T15:32:49;4.90;99.90
15103;DHT22;7652;53.584;9.998;2022-12-07T15:35:53;4.80;99.90
15103;DHT22;7652;53.584;9.998;2022-12-07T15:38:56;4.70;99.90
15103;DHT22;7652;53.584;9.998;2022-12-07T15:42:15;4.70;99.90
15103;DHT22;7652;53.584;9.998;2022-12-07T15:45:18;4.60;99.90
15103;DHT22;7652;53.584;9.998;2022-12-07T15:48:21;4.50;99.90
15103;DHT22;7652;53.584;9.998;2022-12-07T15:51:31;4.50;99.90
15103;DHT22;7652;53.584;9.998;2022-12-07T15:54:34;4.40;99.90
15103;DHT22;7652;53.584;9.998;2022-12-07T15:57:39;4.30;99.90
15103;DHT22;7652;53.584;9.998;2022-12-07T16:00:42;4.30;99.90
15103;DHT22;7652;53.584;9.998;2022-12-07T16:03:46;4.20;99.90
15103;DHT22;7652;53.584;9.998;2022-12-07T16:06:50;4.20;99.90
15103;DHT22;7652;53.584;9.998;2022-12-07T16:09:53;4.20;99.90
15103;DHT22;7652;53.584;9.998;2022-12-07T16:12:56;4.20;99.90
15103;DHT22;7652;53.584;9.998;2022-12-07T16:16:03;4.10;99.90
15103;DHT22;7652;53.584;9.998;2022-12-07T16:19:06;4.10;99.90
15103;DHT22;7652;53.584;9.998;2022-12-07T16:22:11;4.20;99.90
15103;DHT22;7652;53.584;9.998;2022-12-07T16:25:14;4.20;99.90
15103;DHT22;7652;53.584;9.998;2022-12-07T16:28:17;4.20;99.90
15103;DHT22;7652;53.584;9.998;2022-12-07T16:31:23;4.30;99.90
15103;DHT22;7652;53.584;9.998;2022-12-07T16:34:26;4.30;99.90
15103;DHT22;7652;53.584;9.998;2022-12-07T16:37:31;4.30;99.90
15103;DHT22;7652;53.584;9.998;2022-12-07T16:40:34;4.20;99.90
15103;DHT22;7652;53.584;9.998;2022-12-07T16:43:37;4.20;99.90
15103;DHT22;7652;53.584;9.998;2022-12-07T16:46:41;4.20;99.90
15103;DHT22;7652;53.584;9.998;2022-12-07T16:49:44;4.10;99.90
15103;DHT22;7652;53.584;9.998;2022-12-07T16:52:48;4.00;99.90
15103;DHT22;7652;53.584;9.998;2022-12-07T16:55:51;4.00;99.90
15103;DHT22;7652;53.584;9.998;2022-12-07T16:58:54;4.00;99.90
15103;DHT22;7652;53.584;9.998;2022-12-07T17:01:57;4.00;99.90
15103;DHT22;7652;53.584;9.998;2022-12-07T17:05:00;3.90;99.90
15103;DHT22;7652;53.584;9.998;2022-12-07T17:08:05;3.90;99.90
15103;DHT22;7652;53.584;9.998;2022-12-07T17:11:13;3.90;99.90
15103;DHT22;7652;53.584;9.998;2022-12-07T17:14:16;3.90;99.90
15103;DHT22;7652;53.584;9.998;2022-12-07T17:17:36;3.90;99.90
15103;DHT22;7652;53.584;9.998;2022-12-07T17:20:39;3.90;99.90
15103;DHT22;7652;53.584;9.998;2022-12-07T17:23:44;3.90;99.90
15103;DHT22;7652;53.584;9.998;2022-12-07T17:26:48;3.90;99.90
15103;DHT22;7652;53.584;9.998;2022-12-07T17:29:51;3.90;99.90
15103;DHT22;7652;53.584;9.998;2022-12-07T17:32:55;3.90;99.90
15103;DHT22;7652;53.584;9.998;2022-12-07T17:35:58;3.90;99.90
15103;DHT22;7652;53.584;9.998;2022-12-07T17:39:06;3.80;99.90
15103;DHT22;7652;53.584;9.998;2022-12-07T17:42:10;3.80;99.90
15103;DHT22;7652;53.584;9.998;2022-12-07T17:45:31;3.80;99.90
15103;DHT22;7652;53.584;9.998;2022-12-07T17:48:34;3.80;99.90
15103;DHT22;7652;53.584;9.998;2022-12-07T17:51:37;3.80;99.90
15103;DHT22;7652;53.584;9.998;2022-12-07T17:55:00;3.80;99.90
15103;DHT22;7652;53.584;9.998;2022-12-07T17:58:04;3.80;99.90
15103;DHT22;7652;53.584;9.998;2022-12-07T18:01:08;3.80;99.90
15103;DHT22;7652;53.584;9.998;2022-12-07T18:04:12;3.70;99.90
15103;DHT22;7652;53.584;9.998;2022-12-07T18:07:15;3.70;99.90
15103;DHT22;7652;53.584;9.998;2022-12-07T18:10:20;3.60;99.90
15103;DHT22;7652;53.584;9.998;2022-12-07T18:13:23;3.70;99.90
15103;DHT22;7652;53.584;9.998;2022-12-07T18:16:38;3.60;99.90
15103;DHT22;7652;53.584;9.998;2022-12-07T18:19:41;3.50;99.90
15103;DHT22;7652;53.584;9.998;2022-12-07T18:22:44;3.50;99.90
15103;DHT22;7652;53.584;9.998;2022-12-07T18:25:49;3.60;99.90
15103;DHT22;7652;53.584;9.998;2022-12-07T18:28:52;3.70;99.90
15103;DHT22;7652;53.584;9.998;2022-12-07T18:31:55;3.60;99.90
15103;DHT22;7652;53.584;9.998;2022-12-07T18:34:59;3.60;99.90
15103;DHT22;7652;53.584;9.998;2022-12-07T18:38:03;3.60;99.90
15103;DHT22;7652;53.584;9.998;2022-12-07T18:41:08;3.60;99.90
15103;DHT22;7652;53.584;9.998;2022-12-07T18:44:12;3.60;99.90
15103;DHT22;7652;53.584;9.998;2022-12-07T18:47:15;3.60;99.90
15103;DHT22;7652;53.584;9.998;2022-12-07T18:50:18;3.60;99.90
15103;DHT22;7652;53.584;9.998;2022-12-07T18:53:21;3.50;99.90
15103;DHT22;7652;53.584;9.998;2022-12-07T18:56:25;3.40;99.90
15103;DHT22;7652;53.584;9.998;2022-12-07T18:59:28;3.40;99.90
15103;DHT22;7652;53.584;9.998;2022-12-07T19:02:51;3.40;99.90
15103;DHT22;7652;53.584;9.998;2022-12-07T19:05:54;3.30;99.90
15103;DHT22;7652;53.584;9.998;2022-12-07T19:08:58;3.20;99.90
15103;DHT22;7652;53.584;9.998;2022-12-07T19:12:03;3.20;99.90
15103;DHT22;7652;53.584;9.998;2022-12-07T19:15:07;3.20;99.90
15103;DHT22;7652;53.584;9.998;2022-12-07T19:18:11;3.20;99.90
15103;DHT22;7652;53.584;9.998;2022-12-07T19:21:14;3.10;99.90
15103;DHT22;7652;53.584;9.998;2022-12-07T19:24:17;3.00;99.90
15103;DHT22;7652;53.584;9.998;2022-12-07T19:27:26;3.00;99.90
15103;DHT22;7652;53.584;9.998;2022-12-07T19:30:30;3.00;99.90
15103;DHT22;7652;53.584;9.998;2022-12-07T19:33:33;3.00;99.90
15103;DHT22;7652;53.584;9.998;2022-12-07T19:36:37;3.10;99.90
15103;DHT22;7652;53.584;9.998;2022-12-07T19:39:40;3.20;99.90
15103;DHT22;7652;53.584;9.998;2022-12-07T19:42:45;3.30;99.90
15103;DHT22;7652;53.584;9.998;2022-12-07T19:45:48;3.40;99.90
15103;DHT22;7652;53.584;9.998;2022-12-07T19:48:51;3.50;99.90
15103;DHT22;7652;53.584;9.998;2022-12-07T19:51:57;3.50;99.90
15103;DHT22;7652;53.584;9.998;2022-12-07T19:55:00;3.50;99.90
15103;DHT22;7652;53.584;9.998;2022-12-07T19:58:05;3.50;99.90
15103;DHT22;7652;53.584;9.998;2022-12-07T20:01:08;3.40;99.90
15103;DHT22;7652;53.584;9.998;2022-12-07T20:04:13;3.40;99.90
15103;DHT22;7652;53.584;9.998;2022-12-07T20:07:17;3.50;99.90
15103;DHT22;7652;53.584;9.998;2022-12-07T20:10:21;3.50;99.90
15103;DHT22;7652;53.584;9.998;2022-12-07T20:13:28;3.60;99.90
15103;DHT22;7652;53.584;9.998;2022-12-07T20:16:32;3.50;99.90
15103;DHT22;7652;53.584;9.998;2022-12-07T20:19:36;3.50;99.90
15103;DHT22;7652;53.584;9.998;2022-12-07T20:22:39;3.50;99.90